createdAt,value
2023-05-20T00:00:51.433Z,60.92
2023-05-20T00:05:55.662Z,60.04
2023-05-20T00:10:59.636Z,59.90
2023-05-20T00:16:03.850Z,58.86
2023-05-20T00:21:07.986Z,57.86
2023-05-20T00:26:12.130Z,57.16
2023-05-20T00:31:17.408Z,56.84
2023-05-20T00:36:21.329Z,56.60
2023-05-20T00:41:25.766Z,55.93
2023-05-20T00:46:30.718Z,55.15
2023-05-20T00:51:35.066Z,54.60
2023-05-20T00:56:39.218Z,53.57
2023-05-20T01:01:43.465Z,52.66
2023-05-20T01:06:48.764Z,51.93
2023-05-20T01:12:12.601Z,51.29
2023-05-20T01:17:21.920Z,50.91
2023-05-20T01:22:30.326Z,50.20
2023-05-20T01:27:34.812Z,49.33
2023-05-20T01:32:51.796Z,48.58
2023-05-20T01:37:58.910Z,45.79
2023-05-20T01:43:04.720Z,44.58
2023-05-20T01:48:12.211Z,42.85
2023-05-20T01:53:18.173Z,41.30
2023-05-20T01:58:22.207Z,40.37
2023-05-20T02:03:27.792Z,39.72
2023-05-20T02:08:31.701Z,38.83
2023-05-20T02:13:36.702Z,38.07
2023-05-20T02:18:40.705Z,37.54
2023-05-20T02:23:45.217Z,35.52
2023-05-20T02:28:51.396Z,35.64
2023-05-20T02:33:58.620Z,35.59
2023-05-20T02:39:03.026Z,33.95
2023-05-20T02:44:08.298Z,34.50
2023-05-20T02:49:12.271Z,32.88
2023-05-20T02:54:16.342Z,33.13
2023-05-20T02:59:20.318Z,30.71
2023-05-20T03:04:26.597Z,32.59
2023-05-20T03:09:30.650Z,31.90
2023-05-20T03:14:34.990Z,31.51
2023-05-20T03:19:38.978Z,30.90
2023-05-20T03:24:45.328Z,29.61
2023-05-20T03:29:50.697Z,30.45
2023-05-20T03:34:56.183Z,29.39
2023-05-20T03:40:02.922Z,30.18
2023-05-20T03:45:07.927Z,30.07
2023-05-20T03:50:19.262Z,29.40
2023-05-20T03:55:23.626Z,29.07
2023-05-20T04:00:28.687Z,29.10
2023-05-20T04:05:33.090Z,29.38
2023-05-20T04:10:39.622Z,28.81
2023-05-20T04:15:43.681Z,27.92
2023-05-20T04:20:49.256Z,29.07
2023-05-20T04:25:54.099Z,29.11
2023-05-20T04:31:05.947Z,27.79
2023-05-20T04:36:16.479Z,28.52
2023-05-20T04:41:21.229Z,27.25
2023-05-20T04:46:26.971Z,28.82
2023-05-20T04:51:31.122Z,27.92
2023-05-20T04:56:35.608Z,28.10
2023-05-20T05:01:40.486Z,27.19
2023-05-20T05:06:44.671Z,28.09
2023-05-20T05:11:49.325Z,27.21
2023-05-20T05:16:55.546Z,27.27
2023-05-20T05:22:00.071Z,26.47
2023-05-20T05:27:04.258Z,27.04
2023-05-20T05:32:09.181Z,28.10
2023-05-20T05:37:13.268Z,28.00
2023-05-20T05:42:17.559Z,27.87
2023-05-20T05:47:22.723Z,28.33
2023-05-20T05:52:28.556Z,27.43
2023-05-20T05:57:32.983Z,28.03
2023-05-20T06:02:38.672Z,28.65
2023-05-20T06:07:42.732Z,27.69
2023-05-20T06:12:47.252Z,27.95
2023-05-20T06:17:51.493Z,27.64
2023-05-20T06:22:56.026Z,28.31
2023-05-20T06:28:05.242Z,28.54
2023-05-20T06:33:10.550Z,26.66
2023-05-20T06:38:14.932Z,27.52
2023-05-20T06:43:19.792Z,27.15
2023-05-20T06:48:46.148Z,28.39
2023-05-20T06:53:50.190Z,28.19
2023-05-20T06:58:55.791Z,27.83
2023-05-20T07:03:59.951Z,28.20
2023-05-20T07:09:04.880Z,28.44
2023-05-20T07:14:09.960Z,27.67
2023-05-20T07:19:14.835Z,27.01
2023-05-20T07:24:18.879Z,27.36
2023-05-20T07:29:23.019Z,27.23
2023-05-20T07:34:27.694Z,27.86
2023-05-20T07:39:32.158Z,27.79
2023-05-20T07:44:36.374Z,27.81
2023-05-20T07:49:41.715Z,27.26
2023-05-20T07:54:45.901Z,27.80
2023-05-20T07:59:50.402Z,27.13
2023-05-20T08:04:55.254Z,26.50
2023-05-20T08:09:59.242Z,26.73
2023-05-20T08:15:05.321Z,27.09
2023-05-20T08:20:10.537Z,26.56
2023-05-20T08:25:15.939Z,26.41
2023-05-20T08:30:23.317Z,26.44
2023-05-20T08:35:28.032Z,27.15
2023-05-20T08:40:32.331Z,27.46
2023-05-20T08:45:39.861Z,27.52
2023-05-20T08:50:54.062Z,27.70
2023-05-20T08:56:04.032Z,27.23
2023-05-20T09:01:09.297Z,26.97
2023-05-20T09:06:22.086Z,26.89
2023-05-20T09:11:27.848Z,26.52
2023-05-20T09:16:32.203Z,26.62
2023-05-20T09:21:38.133Z,26.85
2023-05-20T09:26:42.552Z,26.45
2023-05-20T09:31:46.828Z,26.40
2023-05-20T09:36:52.138Z,26.67
2023-05-20T09:42:38.666Z,27.11
2023-05-20T09:47:44.179Z,26.94
2023-05-20T09:52:54.277Z,27.19
2023-05-20T09:58:02.984Z,26.09
2023-05-20T10:03:07.690Z,26.56
2023-05-20T10:08:20.352Z,26.60
2023-05-20T10:13:48.967Z,26.80
2023-05-20T10:19:04.728Z,27.01
2023-05-20T10:24:12.710Z,26.39
2023-05-20T10:29:18.830Z,26.84
2023-05-20T10:34:24.536Z,26.98
2023-05-20T10:39:35.337Z,26.97
2023-05-20T10:44:47.306Z,26.94
2023-05-20T10:49:51.391Z,26.89
2023-05-20T10:54:57.005Z,26.63
2023-05-20T11:00:02.204Z,26.61
2023-05-20T11:05:13.559Z,26.25
2023-05-20T11:10:17.667Z,25.92
2023-05-20T11:15:27.482Z,26.40
2023-05-20T11:20:36.061Z,26.69
2023-05-20T11:25:40.276Z,26.41
2023-05-20T11:30:44.726Z,26.29
2023-05-20T11:35:54.102Z,26.79
2023-05-20T11:40:59.601Z,26.57
2023-05-20T11:46:06.233Z,26.80
2023-05-20T11:51:10.341Z,26.92
2023-05-20T11:56:15.893Z,27.17
2023-05-20T12:01:22.879Z,26.93
2023-05-20T12:06:27.736Z,27.30
2023-05-20T12:11:31.667Z,27.50
2023-05-20T12:16:38.142Z,27.60
2023-05-20T12:21:42.340Z,27.78
2023-05-20T12:26:46.780Z,27.97
2023-05-20T12:31:50.659Z,27.83
2023-05-20T12:36:55.558Z,28.21
2023-05-20T12:41:59.844Z,28.01
2023-05-20T12:47:04.264Z,28.26
2023-05-20T12:52:15.291Z,28.40
2023-05-20T12:57:26.514Z,28.35
2023-05-20T13:02:30.967Z,28.52
2023-05-20T13:07:35.327Z,28.71
2023-05-20T13:12:39.865Z,28.69
2023-05-20T13:17:44.031Z,29.00
2023-05-20T13:22:48.836Z,29.20
2023-05-20T13:27:52.714Z,29.05
2023-05-20T13:32:56.832Z,29.13
2023-05-20T13:38:00.876Z,29.17
2023-05-20T13:43:05.221Z,29.24
2023-05-20T13:48:09.419Z,29.48
2023-05-20T13:53:14.638Z,29.62
2023-05-20T13:58:18.820Z,29.54
2023-05-20T14:03:23.049Z,29.79
2023-05-20T14:08:27.867Z,30.36
2023-05-20T14:13:31.787Z,30.76
2023-05-20T14:18:35.963Z,32.13
2023-05-20T14:23:45.008Z,33.56
2023-05-20T14:28:49.970Z,34.23
2023-05-20T14:33:54.270Z,34.33
2023-05-20T14:38:58.465Z,35.17
2023-05-20T14:44:02.435Z,35.71
2023-05-20T14:49:06.781Z,36.18
2023-05-20T14:54:11.043Z,36.23
2023-05-20T14:59:15.361Z,36.61
2023-05-20T15:04:19.417Z,37.49
2023-05-20T15:09:24.479Z,37.83
2023-05-20T15:14:28.687Z,38.33
2023-05-20T15:19:33.597Z,39.00
2023-05-20T15:24:38.034Z,39.22
2023-05-20T15:29:42.081Z,39.01
2023-05-20T15:34:47.057Z,39.56
2023-05-20T15:39:51.140Z,40.23
2023-05-20T15:44:55.215Z,40.65
2023-05-20T15:50:00.025Z,40.63
2023-05-20T15:55:04.227Z,40.88
2023-05-20T16:00:11.743Z,42.05
2023-05-20T16:05:16.607Z,42.47
2023-05-20T16:10:22.395Z,43.38
2023-05-20T16:15:28.892Z,44.33
2023-05-20T16:20:33.098Z,45.03
2023-05-20T16:25:37.663Z,45.73
2023-05-20T16:30:42.103Z,46.07
2023-05-20T16:35:46.365Z,47.16
2023-05-20T16:40:50.426Z,47.67
2023-05-20T16:45:54.708Z,47.95
2023-05-20T16:50:59.093Z,48.63
2023-05-20T16:56:02.985Z,49.19
2023-05-20T17:01:07.509Z,49.80
2023-05-20T17:06:11.738Z,50.37
2023-05-20T17:11:15.792Z,50.90
2023-05-20T17:16:21.093Z,51.70
2023-05-20T17:21:25.211Z,51.94
2023-05-20T17:26:29.551Z,52.26
2023-05-20T17:31:33.946Z,53.01
2023-05-20T17:36:38.098Z,53.24
2023-05-20T17:41:43.584Z,53.81
2023-05-20T17:46:49.509Z,54.11
2023-05-20T17:51:53.626Z,54.63
2023-05-20T17:56:57.899Z,54.41
2023-05-20T18:02:02.026Z,54.74
2023-05-20T18:07:07.674Z,55.80
2023-05-20T18:12:11.749Z,56.32
2023-05-20T18:17:16.161Z,56.19
2023-05-20T18:22:20.417Z,57.12
2023-05-20T18:27:24.583Z,57.32
2023-05-20T18:32:29.787Z,57.67
2023-05-20T18:37:33.807Z,58.02
2023-05-20T18:42:38.121Z,58.15
2023-05-20T18:47:42.548Z,58.65
2023-05-20T18:52:46.896Z,58.82
2023-05-20T18:57:51.261Z,59.03
2023-05-20T19:02:58.738Z,58.83
2023-05-20T19:08:03.263Z,59.79
2023-05-20T19:13:07.265Z,59.80
2023-05-20T19:18:12.192Z,59.17
2023-05-20T19:23:16.771Z,59.67
2023-05-20T19:28:20.852Z,59.45
2023-05-20T19:33:25.036Z,59.88
2023-05-20T19:38:29.250Z,60.29
2023-05-20T19:43:33.151Z,60.80
2023-05-20T19:48:37.360Z,60.65
2023-05-20T19:53:41.473Z,61.04
2023-05-20T19:58:49.154Z,61.14
2023-05-20T20:03:54.642Z,61.74
2023-05-20T20:08:58.858Z,61.32
2023-05-20T20:14:02.841Z,61.86
2023-05-20T20:19:06.961Z,61.68
2023-05-20T20:24:10.868Z,61.95
2023-05-20T20:29:16.336Z,62.62
2023-05-20T20:34:20.852Z,62.44
2023-05-20T20:39:25.781Z,62.59
2023-05-20T20:44:29.941Z,62.90
2023-05-20T20:49:34.069Z,63.08
2023-05-20T20:54:42.176Z,63.13
2023-05-20T20:59:48.492Z,63.25
2023-05-20T21:04:52.354Z,63.23
2023-05-20T21:09:56.553Z,63.47
2023-05-20T21:15:00.911Z,63.11
2023-05-20T21:20:07.541Z,63.14
2023-05-20T21:25:11.970Z,63.63
2023-05-20T21:30:17.976Z,63.75
2023-05-20T21:35:22.078Z,64.09
2023-05-20T21:40:26.401Z,64.09
2023-05-20T21:45:30.456Z,64.44
2023-05-20T21:50:34.577Z,64.03
2023-05-20T21:55:38.879Z,64.16
2023-05-20T22:00:43.390Z,64.33
2023-05-20T22:05:47.427Z,64.81
2023-05-20T22:10:51.354Z,64.84
2023-05-20T22:15:55.362Z,64.90
2023-05-20T22:21:00.237Z,65.04
2023-05-20T22:26:05.437Z,64.97
2023-05-20T22:31:09.517Z,65.19
2023-05-20T22:36:13.398Z,65.04
2023-05-20T22:41:17.494Z,65.11
2023-05-20T22:46:21.381Z,64.79
2023-05-20T22:51:25.964Z,64.52
2023-05-20T22:56:30.388Z,63.85
2023-05-20T23:01:34.267Z,64.33
2023-05-20T23:06:40.219Z,63.53
2023-05-20T23:11:43.976Z,63.19
2023-05-20T23:16:48.185Z,62.82
2023-05-20T23:21:52.449Z,63.09
2023-05-20T23:26:56.423Z,62.25
2023-05-20T23:32:00.495Z,62.28
2023-05-20T23:37:04.530Z,61.42
2023-05-20T23:42:08.672Z,60.88
2023-05-20T23:47:14.079Z,60.84
2023-05-20T23:52:18.078Z,60.05
2023-05-20T23:57:22.084Z,59.51
